Time;durP1;ratioP1;P1;durP2;ratioP2;P2;SDS_P1;SDS_P2;PMS_P1;PMS_P2;Temp;Humidity;BMP_temperature;BMP_pressure;BME280_temperature;BME280_humidity;BME280_pressure;Samples;Min_cycle;Max_cycle;Signal;HPM_P1;HPM_P2
2021/12/27 00:00:52;;;;;;;65.47;42.20;;;-0.80;99.90;;;;;;5090670;28;20459;-70
2021/12/27 00:03:18;;;;;;;59.47;41.83;;;-0.90;99.90;;;;;;5072223;28;20489;-70
2021/12/27 00:05:44;;;;;;;73.15;43.38;;;-1.00;99.90;;;;;;5072104;28;20634;-70
2021/12/27 00:08:10;;;;;;;63.08;40.90;;;-1.20;99.90;;;;;;5089567;28;20064;-70
2021/12/27 00:10:36;;;;;;;63.40;41.53;;;-1.20;99.90;;;;;;5055412;28;20044;-70
2021/12/27 00:13:04;;;;;;;65.28;41.63;;;-1.30;99.90;;;;;;5070642;28;20262;-70
2021/12/27 00:15:30;;;;;;;65.10;43.67;;;-1.30;99.90;;;;;;5070416;28;20040;-70
2021/12/27 00:17:56;;;;;;;60.40;41.42;;;-1.20;99.90;;;;;;5070204;28;20044;-70
2021/12/27 00:20:22;;;;;;;61.25;41.03;;;-1.20;99.90;;;;;;5071164;28;20048;-70
2021/12/27 00:22:49;;;;;;;69.20;43.28;;;-1.10;99.90;;;;;;5058536;28;20072;-70
2021/12/27 00:25:15;;;;;;;69.30;44.40;;;-1.10;99.90;;;;;;5061469;28;20053;-70
2021/12/27 00:27:41;;;;;;;63.70;40.58;;;-1.10;99.90;;;;;;5060163;28;20048;-70
2021/12/27 00:30:08;;;;;;;59.83;39.30;;;-1.00;99.90;;;;;;5065694;28;20048;-70
2021/12/27 00:32:36;;;;;;;64.57;41.47;;;-1.00;99.90;;;;;;5067633;28;20048;-70
2021/12/27 00:35:04;;;;;;;61.75;41.15;;;-1.00;99.90;;;;;;5068132;28;20051;-70
2021/12/27 00:37:29;;;;;;;63.13;41.85;;;-1.00;99.90;;;;;;5081698;28;21334;-70
2021/12/27 00:39:56;;;;;;;64.65;43.67;;;-1.00;99.90;;;;;;5070306;28;20052;-70
2021/12/27 00:42:21;;;;;;;60.00;40.45;;;-0.90;99.90;;;;;;5088318;28;20378;-70
2021/12/27 00:44:47;;;;;;;66.15;43.70;;;-0.90;99.90;;;;;;5067923;28;20059;-70
2021/12/27 00:47:13;;;;;;;60.33;40.47;;;-0.90;99.90;;;;;;5087591;28;20032;-70
2021/12/27 00:49:38;;;;;;;68.07;43.92;;;-0.90;99.90;;;;;;5081477;28;20557;-70
2021/12/27 00:52:04;;;;;;;69.05;45.10;;;-0.80;99.90;;;;;;5071003;28;20036;-70
2021/12/27 00:54:30;;;;;;;66.25;43.33;;;-0.90;99.90;;;;;;5086789;28;20044;-70
2021/12/27 00:56:55;;;;;;;64.45;43.15;;;-0.80;99.90;;;;;;5085700;28;20046;-70
2021/12/27 00:59:21;;;;;;;66.35;42.47;;;-0.80;99.90;;;;;;5072026;28;20040;-70
2021/12/27 01:01:47;;;;;;;67.80;42.80;;;-0.80;99.90;;;;;;5059379;28;20048;-70
2021/12/27 01:04:13;;;;;;;62.05;40.78;;;-0.80;99.90;;;;;;5080806;28;20076;-70
2021/12/27 01:06:38;;;;;;;68.13;42.05;;;-0.80;99.90;;;;;;5089870;28;20451;-70
2021/12/27 01:09:04;;;;;;;60.88;43.92;;;-0.80;99.90;;;;;;5085452;28;20159;-70
2021/12/27 01:11:56;;;;;;;67.20;43.83;;;-0.80;99.90;;;;;;5068835;28;20052;-70
2021/12/27 01:14:38;;;;;;;66.93;43.38;;;-0.70;99.90;;;;;;5087480;28;20074;-70
2021/12/27 01:17:04;;;;;;;61.10;40.10;;;-0.70;99.90;;;;;;5068913;28;20044;-70
2021/12/27 01:19:29;;;;;;;63.38;43.65;;;-0.70;99.90;;;;;;5069632;28;20049;-70
2021/12/27 01:21:55;;;;;;;65.03;43.72;;;-0.70;99.90;;;;;;5070556;28;20048;-70
2021/12/27 01:24:21;;;;;;;70.20;43.03;;;-0.70;99.90;;;;;;5063136;28;20040;-70
2021/12/27 01:26:47;;;;;;;68.75;43.47;;;-0.70;99.90;;;;;;5082129;28;20544;-70
2021/12/27 01:29:12;;;;;;;68.50;42.72;;;-0.70;99.90;;;;;;5087706;28;20052;-70
2021/12/27 01:31:38;;;;;;;66.95;43.35;;;-0.70;99.90;;;;;;5059652;28;20505;-70
2021/12/27 01:34:04;;;;;;;64.13;44.33;;;-0.70;99.90;;;;;;5085501;28;20115;-70
2021/12/27 01:36:32;;;;;;;65.53;44.47;;;-0.70;99.90;;;;;;5068308;28;20048;-70
2021/12/27 01:38:59;;;;;;;70.85;42.50;;;-0.70;99.90;;;;;;5086337;28;20047;-70
2021/12/27 01:41:24;;;;;;;63.97;44.47;;;-0.70;99.90;;;;;;5058668;28;20052;-70
2021/12/27 01:43:52;;;;;;;68.38;44.20;;;-0.70;99.90;;;;;;5086608;28;20047;-70
2021/12/27 01:46:20;;;;;;;64.32;44.33;;;-0.70;99.90;;;;;;5087397;28;20408;-70
2021/12/27 01:48:54;;;;;;;70.00;45.83;;;-0.70;99.90;;;;;;5085814;28;20051;-70
2021/12/27 01:51:20;;;;;;;61.95;41.03;;;-0.70;99.90;;;;;;5087876;28;20134;-70
2021/12/27 01:53:46;;;;;;;69.03;44.67;;;-0.70;99.90;;;;;;5076116;28;20101;-70
2021/12/27 01:56:14;;;;;;;61.25;44.83;;;-0.70;99.90;;;;;;5080354;28;20040;-70
2021/12/27 01:58:40;;;;;;;66.40;44.55;;;-0.70;99.90;;;;;;5089023;28;20040;-69
2021/12/27 02:01:08;;;;;;;72.03;45.60;;;-0.60;99.90;;;;;;5088139;28;20135;-70
2021/12/27 02:03:34;;;;;;;76.65;48.08;;;-0.60;99.90;;;;;;5068625;28;20050;-70
2021/12/27 02:06:01;;;;;;;69.80;45.85;;;-0.60;99.90;;;;;;5069155;28;20547;-70
2021/12/27 02:08:28;;;;;;;66.00;43.00;;;-0.60;99.90;;;;;;5069384;28;20484;-70
2021/12/27 02:10:54;;;;;;;70.97;45.78;;;-0.60;99.90;;;;;;5070303;28;20067;-70
2021/12/27 02:13:21;;;;;;;74.90;48.92;;;-0.60;99.90;;;;;;5069227;28;20043;-70
2021/12/27 02:15:47;;;;;;;69.07;44.30;;;-0.60;99.90;;;;;;5084950;28;20097;-70
2021/12/27 02:18:13;;;;;;;68.50;45.17;;;-0.60;99.90;;;;;;5086935;28;20044;-70
2021/12/27 02:20:41;;;;;;;72.82;47.25;;;-0.60;99.90;;;;;;5082903;28;20048;-70
2021/12/27 02:23:15;;;;;;;68.07;45.40;;;-0.50;99.90;;;;;;5086892;28;20123;-70
2021/12/27 02:25:49;;;;;;;66.90;44.72;;;-0.50;99.90;;;;;;5085193;28;20078;-70
2021/12/27 02:28:16;;;;;;;68.78;46.08;;;-0.50;99.90;;;;;;5085665;28;20048;-70
2021/12/27 02:30:43;;;;;;;71.05;46.60;;;-0.50;99.90;;;;;;5088662;28;20044;-70
2021/12/27 02:33:10;;;;;;;67.82;44.92;;;-0.50;99.90;;;;;;5076745;28;20109;-70
2021/12/27 02:35:45;;;;;;;65.47;45.22;;;-0.50;99.90;;;;;;5065829;28;20055;-70
2021/12/27 02:38:15;;;;;;;70.32;46.13;;;-0.50;99.90;;;;;;5067777;28;20089;-70
2021/12/27 02:40:43;;;;;;;69.80;47.95;;;-0.50;99.90;;;;;;5069929;28;20084;-70
2021/12/27 02:43:11;;;;;;;68.20;47.58;;;-0.50;99.90;;;;;;5078349;28;20488;-70
2021/12/27 02:45:49;;;;;;;65.50;44.17;;;-0.50;99.90;;;;;;5084426;28;20048;-70
2021/12/27 02:48:17;;;;;;;67.53;46.35;;;-0.50;99.90;;;;;;5078863;28;20377;-70
2021/12/27 02:50:45;;;;;;;76.43;48.20;;;-0.50;99.90;;;;;;5075490;28;20424;-70
2021/12/27 02:53:11;;;;;;;68.55;48.70;;;-0.50;99.90;;;;;;5061189;28;20048;-70
2021/12/27 02:55:38;;;;;;;74.65;48.95;;;-0.50;99.90;;;;;;5093712;28;20052;-70
2021/12/27 02:58:04;;;;;;;75.13;49.67;;;-0.40;99.90;;;;;;5074238;28;20039;-70
2021/12/27 03:00:37;;;;;;;70.97;47.35;;;-0.40;99.90;;;;;;5074928;28;20069;-70
2021/12/27 03:03:03;;;;;;;67.72;44.97;;;-0.40;99.90;;;;;;5062448;28;20080;-70
2021/12/27 03:05:30;;;;;;;77.18;47.92;;;-0.40;99.90;;;;;;5067358;28;20091;-70
2021/12/27 03:07:56;;;;;;;76.32;46.78;;;-0.40;99.90;;;;;;5065497;28;20054;-70
2021/12/27 03:10:25;;;;;;;69.50;47.13;;;-0.40;99.90;;;;;;5074399;28;20048;-70
2021/12/27 03:12:51;;;;;;;65.30;45.25;;;-0.40;99.90;;;;;;5076893;28;20059;-70
2021/12/27 03:15:18;;;;;;;79.85;51.78;;;-0.40;99.90;;;;;;5082045;28;20528;-70
2021/12/27 03:17:46;;;;;;;68.00;45.88;;;-0.40;99.90;;;;;;5062548;28;20067;-70
2021/12/27 03:20:13;;;;;;;68.45;47.13;;;-0.40;99.90;;;;;;5062591;28;20032;-70
2021/12/27 03:22:42;;;;;;;72.28;48.30;;;-0.40;99.90;;;;;;5076601;28;20048;-70
2021/12/27 03:25:10;;;;;;;68.97;47.45;;;-0.40;99.90;;;;;;5069235;28;20057;-70
2021/12/27 03:27:36;;;;;;;69.22;46.25;;;-0.40;99.90;;;;;;5070637;28;20462;-70
2021/12/27 03:30:09;;;;;;;66.72;46.55;;;-0.40;99.90;;;;;;5073848;28;20091;-70
2021/12/27 03:32:36;;;;;;;70.93;47.13;;;-0.40;99.90;;;;;;5074766;28;21075;-70
2021/12/27 03:35:09;;;;;;;77.07;47.63;;;-0.30;99.90;;;;;;5090326;28;20092;-70
2021/12/27 03:37:38;;;;;;;66.30;46.85;;;-0.30;99.90;;;;;;5068222;28;20051;-70
2021/12/27 03:40:06;;;;;;;66.60;47.30;;;-0.30;99.90;;;;;;5064803;28;20052;-70
2021/12/27 03:42:32;;;;;;;78.60;49.35;;;-0.30;99.90;;;;;;5076290;28;20143;-70
2021/12/27 03:44:58;;;;;;;72.45;45.92;;;-0.30;99.90;;;;;;5074286;28;20501;-70
2021/12/27 03:47:23;;;;;;;74.88;48.30;;;-0.30;99.90;;;;;;5071966;28;20067;-70
2021/12/27 03:49:49;;;;;;;73.93;49.85;;;-0.30;99.90;;;;;;5064115;28;20079;-70
2021/12/27 03:52:15;;;;;;;68.22;46.42;;;-0.30;99.90;;;;;;5075801;28;20135;-70
2021/12/27 03:54:40;;;;;;;67.57;44.15;;;-0.30;99.90;;;;;;5082412;28;20048;-70
2021/12/27 03:57:06;;;;;;;71.15;46.90;;;-0.20;99.90;;;;;;5073285;28;20048;-70
2021/12/27 04:02:00;;;;;;;70.65;45.85;;;-0.20;99.90;;;;;;5069305;28;20050;-70
2021/12/27 04:04:26;;;;;;;77.75;49.33;;;-0.30;99.90;;;;;;5067363;28;20521;-70
2021/12/27 04:06:52;;;;;;;68.57;48.55;;;-0.20;99.90;;;;;;5065925;28;20069;-70
2021/12/27 04:09:19;;;;;;;70.93;48.50;;;-0.20;99.90;;;;;;5070721;28;20135;-70
2021/12/27 04:11:45;;;;;;;79.72;49.78;;;-0.20;99.90;;;;;;5055264;28;20052;-70
2021/12/27 04:14:11;;;;;;;70.65;46.50;;;-0.20;99.90;;;;;;5060805;28;20099;-70
2021/12/27 04:16:36;;;;;;;67.07;45.45;;;-0.20;99.90;;;;;;5083924;28;20518;-70
2021/12/27 04:19:03;;;;;;;76.35;48.35;;;-0.20;99.90;;;;;;5071096;28;20496;-70
2021/12/27 04:21:28;;;;;;;70.97;50.28;;;-0.20;99.90;;;;;;5068680;28;20048;-70
2021/12/27 04:23:54;;;;;;;71.32;49.78;;;-0.20;99.90;;;;;;5090811;28;20048;-70
2021/12/27 04:26:20;;;;;;;72.43;49.83;;;-0.10;99.90;;;;;;5071421;28;20188;-70
2021/12/27 04:28:46;;;;;;;77.38;47.55;;;-0.20;99.90;;;;;;5068755;28;20523;-70
2021/12/27 04:31:14;;;;;;;74.78;49.25;;;-0.20;99.90;;;;;;5070838;28;20044;-70
2021/12/27 04:33:40;;;;;;;73.80;49.03;;;-0.10;99.90;;;;;;5069986;28;20059;-70
2021/12/27 04:36:06;;;;;;;81.55;50.28;;;-0.10;99.90;;;;;;5069644;28;20054;-70
2021/12/27 04:38:32;;;;;;;75.47;49.08;;;-0.10;99.90;;;;;;5087945;28;20122;-70
2021/12/27 04:40:58;;;;;;;73.32;48.40;;;-0.10;99.90;;;;;;5071645;28;20043;-70
2021/12/27 04:43:25;;;;;;;71.93;48.85;;;-0.10;99.90;;;;;;5083925;28;20120;-70
2021/12/27 04:45:52;;;;;;;68.55;46.65;;;-0.10;99.90;;;;;;5070152;28;20107;-70
2021/12/27 04:48:19;;;;;;;66.70;45.92;;;-0.10;99.90;;;;;;5070072;28;20048;-70
2021/12/27 04:50:44;;;;;;;76.75;52.25;;;-0.20;99.90;;;;;;5070390;28;20047;-70
2021/12/27 04:53:10;;;;;;;82.65;50.28;;;-0.10;99.90;;;;;;5069145;28;20447;-70
2021/12/27 04:55:36;;;;;;;74.75;49.50;;;-0.10;99.90;;;;;;5089259;28;20048;-70
2021/12/27 04:58:04;;;;;;;70.88;48.65;;;-0.10;99.90;;;;;;5070700;28;20864;-70
2021/12/27 05:00:30;;;;;;;73.57;49.53;;;-0.10;99.90;;;;;;5055918;28;20048;-70
2021/12/27 05:02:58;;;;;;;70.50;47.65;;;-0.10;99.90;;;;;;5066859;28;20282;-70
2021/12/27 05:05:24;;;;;;;79.07;48.97;;;-0.10;99.90;;;;;;5067939;28;20485;-70
2021/12/27 05:07:51;;;;;;;72.25;47.92;;;-0.10;99.90;;;;;;5070447;28;20059;-70
2021/12/27 05:10:17;;;;;;;73.13;46.20;;;-0.10;99.90;;;;;;5062672;28;20071;-70
2021/12/27 05:12:43;;;;;;;73.15;47.53;;;-0.10;99.90;;;;;;5066992;28;20079;-70
2021/12/27 05:15:09;;;;;;;69.60;47.53;;;-0.10;99.90;;;;;;5087563;28;20040;-70
2021/12/27 05:17:35;;;;;;;73.65;49.47;;;-0.10;99.90;;;;;;5071013;28;20635;-70
2021/12/27 05:20:04;;;;;;;72.40;48.28;;;-0.10;99.90;;;;;;5060155;28;20049;-70
2021/12/27 05:22:31;;;;;;;74.22;49.25;;;-0.10;99.90;;;;;;5064901;28;20122;-70
2021/12/27 05:24:57;;;;;;;72.30;47.90;;;-0.10;99.90;;;;;;5084006;28;20052;-70
2021/12/27 05:27:23;;;;;;;78.18;51.17;;;-0.10;99.90;;;;;;5088420;28;20059;-70
2021/12/27 05:29:49;;;;;;;74.10;49.53;;;-0.10;99.90;;;;;;5086487;28;20058;-70
2021/12/27 05:32:15;;;;;;;78.93;50.05;;;-0.10;99.90;;;;;;5085411;28;20769;-70
2021/12/27 05:34:40;;;;;;;78.93;48.80;;;-0.10;99.90;;;;;;5069680;28;20036;-70
2021/12/27 05:37:06;;;;;;;72.20;46.55;;;-0.10;99.90;;;;;;5066513;28;20507;-70
2021/12/27 05:39:33;;;;;;;77.10;51.58;;;-0.10;99.90;;;;;;5065883;28;20047;-70
2021/12/27 05:41:59;;;;;;;74.53;47.53;;;-0.10;99.90;;;;;;5068250;28;20119;-70
2021/12/27 05:44:24;;;;;;;80.78;51.42;;;-0.10;99.90;;;;;;5054648;28;20119;-70
2021/12/27 05:46:50;;;;;;;76.50;52.45;;;-0.10;99.90;;;;;;5068542;28;20136;-70
2021/12/27 05:49:16;;;;;;;71.45;49.05;;;-0.10;99.90;;;;;;5066242;28;20047;-70
2021/12/27 05:51:46;;;;;;;76.03;50.53;;;-0.10;99.90;;;;;;5056463;28;20044;-70
2021/12/27 05:54:13;;;;;;;82.32;51.78;;;-0.10;99.90;;;;;;5085984;28;20047;-70
2021/12/27 05:56:40;;;;;;;78.05;50.55;;;-0.10;99.90;;;;;;5036277;28;20118;-70
2021/12/27 05:59:05;;;;;;;78.90;52.78;;;-0.10;99.90;;;;;;5056257;28;20060;-70
2021/12/27 06:01:31;;;;;;;81.75;55.80;;;-0.20;99.90;;;;;;5082570;28;20421;-70
2021/12/27 06:03:59;;;;;;;82.03;52.22;;;-0.20;99.90;;;;;;5072223;28;20732;-70
2021/12/27 06:06:26;;;;;;;79.10;54.30;;;-0.20;99.90;;;;;;5088579;28;20051;-70
2021/12/27 06:08:52;;;;;;;74.63;49.88;;;-0.20;99.90;;;;;;5088294;28;20047;-70
2021/12/27 06:11:17;;;;;;;81.65;55.40;;;-0.20;99.90;;;;;;5077774;28;20101;-70
2021/12/27 06:13:43;;;;;;;79.03;53.25;;;-0.20;99.90;;;;;;5058127;28;20040;-70
2021/12/27 06:16:10;;;;;;;78.72;51.55;;;-0.20;99.90;;;;;;5066407;28;20071;-70
2021/12/27 06:18:35;;;;;;;81.15;53.75;;;-0.20;99.90;;;;;;5084868;28;20040;-70
2021/12/27 06:21:02;;;;;;;91.45;57.70;;;-0.20;99.90;;;;;;5060326;28;20102;-70
2021/12/27 06:23:27;;;;;;;91.10;55.40;;;-0.20;99.90;;;;;;5055970;28;20086;-70
2021/12/27 06:25:53;;;;;;;87.63;55.15;;;-0.20;99.90;;;;;;5065679;28;20075;-70
2021/12/27 06:28:19;;;;;;;87.63;55.30;;;-0.20;99.90;;;;;;5068641;28;20048;-70
2021/12/27 06:30:44;;;;;;;82.65;54.90;;;-0.20;99.90;;;;;;5057800;28;20432;-70
2021/12/27 06:33:10;;;;;;;81.20;51.45;;;-0.20;99.90;;;;;;5080010;28;20036;-70
2021/12/27 06:35:37;;;;;;;80.47;54.60;;;-0.20;99.90;;;;;;5069140;28;20076;-70
2021/12/27 06:38:03;;;;;;;86.03;51.92;;;-0.20;99.90;;;;;;5068860;28;20049;-70
2021/12/27 06:40:30;;;;;;;88.05;52.65;;;-0.20;99.90;;;;;;5063684;28;20086;-70
2021/12/27 06:42:57;;;;;;;80.40;51.50;;;-0.20;99.90;;;;;;5065286;28;20071;-70
2021/12/27 06:45:23;;;;;;;77.05;50.78;;;-0.20;99.90;;;;;;5085735;28;20054;-70
2021/12/27 06:47:49;;;;;;;84.97;53.90;;;-0.10;99.90;;;;;;5059317;28;20106;-70
2021/12/27 06:50:15;;;;;;;84.55;55.10;;;-0.10;99.90;;;;;;5067254;28;20509;-70
2021/12/27 06:52:41;;;;;;;81.97;54.38;;;-0.10;99.90;;;;;;5064540;28;20101;-70
2021/12/27 06:55:08;;;;;;;83.43;53.63;;;-0.10;99.90;;;;;;5067482;28;20055;-70
2021/12/27 06:57:34;;;;;;;82.53;52.58;;;0.00;99.90;;;;;;5062063;28;20052;-70
2021/12/27 07:00:01;;;;;;;89.55;55.40;;;0.00;99.90;;;;;;5068019;28;20122;-70
2021/12/27 07:02:26;;;;;;;81.30;51.95;;;0.00;99.90;;;;;;5066384;28;20056;-70
2021/12/27 07:04:52;;;;;;;85.70;54.88;;;0.00;99.90;;;;;;5070047;28;20463;-70
2021/12/27 07:07:18;;;;;;;78.93;51.17;;;0.00;99.90;;;;;;5086646;28;20048;-70
2021/12/27 07:09:43;;;;;;;81.63;53.45;;;0.00;99.90;;;;;;5087926;28;20050;-70
2021/12/27 07:12:09;;;;;;;85.80;53.40;;;0.00;99.90;;;;;;5087104;28;20499;-70
2021/12/27 07:14:35;;;;;;;89.97;54.55;;;0.00;99.90;;;;;;5104847;28;20048;-70
2021/12/27 07:17:01;;;;;;;89.22;56.35;;;-0.10;99.90;;;;;;5064029;28;20050;-70
2021/12/27 07:19:27;;;;;;;92.88;59.47;;;0.00;99.90;;;;;;5060936;28;20110;-70
2021/12/27 07:21:53;;;;;;;95.82;59.20;;;-0.10;99.90;;;;;;5055804;28;20056;-70
2021/12/27 07:24:19;;;;;;;95.20;58.40;;;-0.10;99.90;;;;;;5086213;28;20094;-70
2021/12/27 07:26:44;;;;;;;90.72;56.97;;;-0.10;99.90;;;;;;5081639;28;20500;-70
2021/12/27 07:29:10;;;;;;;94.53;56.30;;;-0.10;99.90;;;;;;5085975;28;20584;-69
2021/12/27 07:31:36;;;;;;;85.00;56.08;;;-0.10;99.90;;;;;;5063443;28;20105;-70
2021/12/27 07:34:01;;;;;;;87.05;57.15;;;-0.10;99.90;;;;;;5088709;28;20081;-69
2021/12/27 07:36:29;;;;;;;81.40;54.13;;;-0.10;99.90;;;;;;5082779;28;20053;-70
2021/12/27 07:38:55;;;;;;;91.18;56.17;;;-0.10;99.90;;;;;;5069591;28;20043;-70
2021/12/27 07:41:20;;;;;;;88.88;56.70;;;-0.10;99.90;;;;;;5067346;28;20119;-70
2021/12/27 07:43:46;;;;;;;96.82;55.15;;;-0.10;99.90;;;;;;5066319;28;20040;-70
2021/12/27 07:46:12;;;;;;;92.43;55.60;;;0.00;99.90;;;;;;5083781;28;20131;-70
2021/12/27 07:48:37;;;;;;;84.97;56.65;;;0.00;99.90;;;;;;5063083;28;20048;-70
2021/12/27 07:51:03;;;;;;;90.82;57.30;;;0.00;99.90;;;;;;5087299;28;20497;-69
2021/12/27 07:53:29;;;;;;;90.15;55.40;;;0.10;99.90;;;;;;5087909;28;20052;-69
2021/12/27 07:55:54;;;;;;;94.32;55.60;;;0.10;99.90;;;;;;5069760;28;20055;-70
2021/12/27 07:58:20;;;;;;;90.70;53.83;;;0.20;99.90;;;;;;5082943;28;20438;-69
2021/12/27 08:00:50;;;;;;;83.10;54.13;;;0.20;99.90;;;;;;5077727;28;21178;-70
2021/12/27 08:03:20;;;;;;;86.75;55.55;;;0.20;99.90;;;;;;5061677;28;20075;-69
2021/12/27 08:05:47;;;;;;;80.72;52.75;;;0.20;99.90;;;;;;5072387;28;20051;-70
2021/12/27 08:08:13;;;;;;;92.07;53.28;;;0.20;99.90;;;;;;5068431;28;20489;-70
2021/12/27 08:10:39;;;;;;;81.07;53.03;;;0.30;99.90;;;;;;5081655;28;20048;-70
2021/12/27 08:13:05;;;;;;;89.03;53.65;;;0.30;99.90;;;;;;5066650;28;20390;-70
2021/12/27 08:15:31;;;;;;;82.18;54.88;;;0.30;99.90;;;;;;5072101;28;20086;-70
2021/12/27 08:17:57;;;;;;;96.93;56.85;;;0.30;99.90;;;;;;5087751;28;20068;-70
2021/12/27 08:20:22;;;;;;;90.55;55.10;;;0.40;99.90;;;;;;5065579;28;20443;-70
2021/12/27 08:22:49;;;;;;;96.10;56.40;;;0.40;99.90;;;;;;5069144;28;20064;-70
2021/12/27 08:25:15;;;;;;;92.20;56.95;;;0.40;99.90;;;;;;5085667;28;20146;-70
2021/12/27 08:27:42;;;;;;;87.85;55.60;;;0.40;99.90;;;;;;5068274;28;20451;-70
2021/12/27 08:30:10;;;;;;;100.15;58.65;;;0.40;99.90;;;;;;5068404;28;20087;-70
2021/12/27 08:32:38;;;;;;;86.93;53.13;;;0.50;99.90;;;;;;5066863;28;20555;-70
2021/12/27 08:35:05;;;;;;;91.38;54.85;;;0.50;99.90;;;;;;5069842;28;20048;-70
2021/12/27 08:37:31;;;;;;;98.45;58.40;;;0.50;99.90;;;;;;5059117;28;20074;-69
2021/12/27 08:39:58;;;;;;;88.18;54.03;;;0.50;99.90;;;;;;5062816;28;20051;-70
2021/12/27 08:42:24;;;;;;;97.45;57.65;;;0.50;99.90;;;;;;5058637;28;20097;-70
2021/12/27 08:44:50;;;;;;;95.43;56.08;;;0.60;99.90;;;;;;5064441;28;20456;-70
2021/12/27 08:47:16;;;;;;;87.72;52.95;;;0.60;99.90;;;;;;5062933;28;20044;-70
2021/12/27 08:49:43;;;;;;;90.43;53.63;;;0.60;99.90;;;;;;5065457;28;20036;-70
2021/12/27 08:52:08;;;;;;;104.40;58.80;;;0.60;99.90;;;;;;5063384;28;20101;-70
2021/12/27 08:54:34;;;;;;;98.05;57.60;;;0.60;99.90;;;;;;5065660;28;20044;-70
2021/12/27 08:57:00;;;;;;;105.57;57.50;;;0.70;99.90;;;;;;5058338;28;20425;-71
2021/12/27 08:59:26;;;;;;;95.75;58.15;;;0.70;99.90;;;;;;5050861;28;20477;-70
2021/12/27 09:01:52;;;;;;;92.82;56.50;;;0.70;99.90;;;;;;5066667;28;20084;-71
2021/12/27 09:04:17;;;;;;;103.63;59.70;;;0.70;99.90;;;;;;5058549;28;20127;-70
2021/12/27 09:06:43;;;;;;;112.90;61.40;;;0.70;99.90;;;;;;5061842;28;20124;-71
2021/12/27 09:09:09;;;;;;;103.45;57.55;;;0.70;99.90;;;;;;5064703;28;20045;-70
2021/12/27 09:11:35;;;;;;;119.50;58.92;;;0.80;99.90;;;;;;5056204;28;20453;-70
2021/12/27 09:14:00;;;;;;;108.22;60.90;;;0.80;99.90;;;;;;5061801;28;20528;-71
2021/12/27 09:16:27;;;;;;;105.50;58.42;;;0.80;99.90;;;;;;5065404;28;20053;-71
2021/12/27 09:18:52;;;;;;;103.88;57.58;;;0.80;99.90;;;;;;5066789;28;20048;-71
2021/12/27 09:21:18;;;;;;;110.65;61.17;;;0.90;99.90;;;;;;5065199;28;20055;-70
2021/12/27 09:23:44;;;;;;;124.97;63.55;;;0.90;99.90;;;;;;5059890;28;20417;-71
2021/12/27 09:26:09;;;;;;;121.72;62.08;;;1.00;99.90;;;;;;5055425;28;20086;-70
2021/12/27 09:28:35;;;;;;;111.55;60.47;;;1.00;99.90;;;;;;5057110;28;20072;-70
2021/12/27 09:31:01;;;;;;;108.20;61.08;;;1.00;99.90;;;;;;5065902;28;20075;-70
2021/12/27 09:33:27;;;;;;;122.50;61.95;;;1.10;99.90;;;;;;5066972;28;20052;-72
2021/12/27 09:35:53;;;;;;;125.90;60.92;;;1.10;99.90;;;;;;5060461;28;20114;-72
2021/12/27 09:38:19;;;;;;;137.88;64.00;;;1.10;99.90;;;;;;5065344;28;20083;-72
2021/12/27 09:40:45;;;;;;;135.23;65.18;;;1.10;99.90;;;;;;5052773;28;20474;-72
2021/12/27 09:43:10;;;;;;;136.60;63.00;;;1.10;99.90;;;;;;5061009;28;20123;-72
2021/12/27 09:45:37;;;;;;;128.65;65.25;;;1.10;99.90;;;;;;5055394;28;20132;-72
2021/12/27 09:48:03;;;;;;;132.13;64.65;;;1.20;99.90;;;;;;5057418;28;20502;-72
2021/12/27 09:50:46;;;;;;;151.05;65.78;;;1.20;99.90;;;;;;5064613;28;20163;-72
2021/12/27 09:53:12;;;;;;;136.60;67.10;;;1.20;99.90;;;;;;5067356;28;20056;-72
2021/12/27 09:55:38;;;;;;;143.55;65.95;;;1.20;99.90;;;;;;5064775;28;20106;-72
2021/12/27 09:58:05;;;;;;;143.50;68.32;;;1.20;99.90;;;;;;5054790;28;20049;-72
2021/12/27 10:00:32;;;;;;;155.80;73.18;;;1.20;99.90;;;;;;5063881;28;20048;-72
2021/12/27 10:02:58;;;;;;;173.75;78.35;;;1.20;99.90;;;;;;5062797;28;20493;-72
2021/12/27 10:05:26;;;;;;;170.55;77.15;;;1.20;99.90;;;;;;5063792;28;20052;-72
2021/12/27 10:07:52;;;;;;;179.07;77.00;;;1.20;99.90;;;;;;5062145;28;20697;-72
2021/12/27 10:10:18;;;;;;;175.73;77.13;;;1.20;99.90;;;;;;5054452;28;20047;-72
2021/12/27 10:12:45;;;;;;;184.95;80.57;;;1.20;99.90;;;;;;5051209;28;20099;-72
2021/12/27 10:15:20;;;;;;;207.32;85.13;;;1.20;99.90;;;;;;5066199;28;20132;-73
2021/12/27 10:17:48;;;;;;;207.05;84.25;;;1.30;99.90;;;;;;5065005;28;20095;-72
2021/12/27 10:20:17;;;;;;;192.35;80.35;;;1.30;99.90;;;;;;5060614;28;20163;-72
2021/12/27 10:22:45;;;;;;;178.73;77.80;;;1.30;99.90;;;;;;5054138;28;20386;-72
2021/12/27 10:25:20;;;;;;;186.45;79.43;;;1.30;99.90;;;;;;5048855;28;20078;-72
2021/12/27 10:27:47;;;;;;;177.25;76.65;;;1.30;99.90;;;;;;5064453;28;20596;-73
2021/12/27 10:30:20;;;;;;;171.48;78.55;;;1.30;99.90;;;;;;5058939;28;20044;-72
2021/12/27 10:33:01;;;;;;;195.35;80.78;;;1.40;99.90;;;;;;5053215;28;20401;-72
2021/12/27 10:35:37;;;;;;;193.60;83.78;;;1.40;99.90;;;;;;5051101;28;20109;-72
2021/12/27 10:38:17;;;;;;;211.57;84.38;;;1.40;99.90;;;;;;5051780;28;20430;-72
2021/12/27 10:40:55;;;;;;;208.65;89.47;;;1.50;99.90;;;;;;5059624;28;20041;-73
2021/12/27 10:43:44;;;;;;;206.73;84.82;;;1.50;99.90;;;;;;5061160;28;20110;-73
2021/12/27 10:46:16;;;;;;;192.90;86.65;;;1.50;99.90;;;;;;5065165;28;20047;-73
2021/12/27 10:48:46;;;;;;;184.23;80.45;;;1.60;99.90;;;;;;5056203;28;20119;-73
2021/12/27 10:51:13;;;;;;;219.27;86.05;;;1.60;99.90;;;;;;5060308;28;20054;-73
2021/12/27 10:54:08;;;;;;;191.23;81.57;;;1.60;99.90;;;;;;5065759;28;20072;-72
2021/12/27 10:56:53;;;;;;;213.05;85.20;;;1.60;99.90;;;;;;5047527;28;20052;-73
2021/12/27 10:59:20;;;;;;;212.63;85.10;;;1.60;99.90;;;;;;5065791;28;20076;-73
2021/12/27 11:01:49;;;;;;;206.75;82.22;;;1.60;99.90;;;;;;5063067;28;20049;-73
2021/12/27 11:04:17;;;;;;;239.35;91.45;;;1.60;99.90;;;;;;5064614;28;20045;-72
2021/12/27 11:06:43;;;;;;;238.48;87.80;;;1.60;99.90;;;;;;5063737;28;20064;-73
2021/12/27 11:09:09;;;;;;;226.38;89.43;;;1.50;99.90;;;;;;5063365;28;20091;-72
2021/12/27 11:11:35;;;;;;;239.93;91.63;;;1.50;99.90;;;;;;5069075;28;20040;-72
2021/12/27 11:14:01;;;;;;;244.38;92.63;;;1.50;99.90;;;;;;5061886;28;20056;-72
2021/12/27 11:16:28;;;;;;;238.32;91.68;;;1.50;99.90;;;;;;5063238;28;20563;-72
2021/12/27 11:18:58;;;;;;;253.07;91.68;;;1.60;99.90;;;;;;5057220;28;20106;-72
2021/12/27 11:21:36;;;;;;;268.30;97.15;;;1.60;99.90;;;;;;5062118;28;20047;-72
2021/12/27 11:24:03;;;;;;;260.52;92.72;;;1.60;99.90;;;;;;5069539;28;20059;-72
2021/12/27 11:26:34;;;;;;;275.10;101.57;;;1.60;99.90;;;;;;5064840;28;20405;-72
2021/12/27 11:29:10;;;;;;;281.70;101.47;;;1.60;99.90;;;;;;5060397;28;20560;-73
2021/12/27 11:31:37;;;;;;;277.55;99.97;;;1.60;99.90;;;;;;5080255;28;20051;-73
2021/12/27 11:34:08;;;;;;;270.88;103.25;;;1.60;99.90;;;;;;5066991;28;20093;-73
2021/12/27 11:36:36;;;;;;;319.77;110.70;;;1.50;99.90;;;;;;5058265;28;20070;-73
2021/12/27 11:39:22;;;;;;;363.20;114.55;;;1.60;99.90;;;;;;5066293;28;20072;-73
2021/12/27 11:42:02;;;;;;;308.10;104.80;;;1.60;99.90;;;;;;5059823;28;20079;-72
2021/12/27 11:44:58;;;;;;;336.70;113.22;;;1.60;99.90;;;;;;5066820;28;20566;-72
2021/12/27 11:47:32;;;;;;;341.73;113.32;;;1.60;99.90;;;;;;5057771;28;20059;-72
2021/12/27 11:50:05;;;;;;;325.50;111.43;;;1.50;99.90;;;;;;5066936;28;20055;-72
2021/12/27 11:52:38;;;;;;;266.02;99.28;;;1.60;99.90;;;;;;5069223;28;20095;-72
2021/12/27 11:55:05;;;;;;;356.67;114.43;;;1.60;99.90;;;;;;5065492;28;20044;-72
2021/12/27 11:57:45;;;;;;;295.27;103.70;;;1.60;99.90;;;;;;5062592;28;20040;-72
2021/12/27 12:00:28;;;;;;;306.30;106.50;;;1.70;99.90;;;;;;5065972;28;20060;-72
2021/12/27 12:03:14;;;;;;;352.05;113.25;;;1.70;99.90;;;;;;5052922;28;20133;-72
2021/12/27 12:05:54;;;;;;;376.75;121.20;;;1.70;99.90;;;;;;5062520;28;20118;-73
2021/12/27 12:08:30;;;;;;;261.48;96.07;;;1.80;99.90;;;;;;5068427;28;20118;-73
2021/12/27 12:11:08;;;;;;;270.95;100.85;;;1.80;99.90;;;;;;5069046;28;20046;-73
2021/12/27 12:13:36;;;;;;;401.92;123.72;;;1.80;99.90;;;;;;5063308;28;20102;-73
2021/12/27 12:16:02;;;;;;;;;;;1.80;99.90;;;;;;5044222;28;20124;-73
2021/12/27 12:18:31;;;;;;;409.15;123.63;;;1.90;99.90;;;;;;5065735;28;20035;-73
2021/12/27 12:20:57;;;;;;;371.67;114.60;;;1.90;99.90;;;;;;5068270;28;20040;-73
2021/12/27 12:23:23;;;;;;;384.05;116.03;;;1.90;99.90;;;;;;5084635;28;20076;-73
2021/12/27 12:26:00;;;;;;;354.00;112.03;;;1.90;99.90;;;;;;5065221;28;20983;-72
2021/12/27 12:28:27;;;;;;;440.63;132.27;;;1.90;99.90;;;;;;5075762;28;20052;-72
2021/12/27 12:30:53;;;;;;;394.55;122.97;;;1.90;99.90;;;;;;5053508;28;20040;-72
2021/12/27 12:33:25;;;;;;;447.52;133.80;;;1.90;99.90;;;;;;5067911;28;20547;-73